Time;durP1;ratioP1;P1;durP2;ratioP2;P2;SDS_P1;SDS_P2;PMS_P1;PMS_P2;Temp;Humidity;BMP_temperature;BMP_pressure;BME280_temperature;BME280_humidity;BME280_pressure;Samples;Min_cycle;Max_cycle;Signal;HPM_P1;HPM_P2
2022/09/13 00:02:10;;;;;;;15.88;10.57;;;;;;;26.46;44.04;100706.00;5048617;28;20045;-79
2022/09/13 00:04:39;;;;;;;17.42;9.55;;;;;;;26.56;44.22;100701.25;5044377;28;20049;-83
2022/09/13 00:07:07;;;;;;;14.88;9.48;;;;;;;26.63;44.22;100708.06;5056454;28;20502;-82
2022/09/13 00:09:36;;;;;;;15.98;9.75;;;;;;;26.69;43.51;100690.09;5035568;28;20496;-82
2022/09/13 00:12:05;;;;;;;19.13;10.85;;;;;;;26.72;42.74;100689.13;5052428;28;20052;-85
2022/09/13 00:14:33;;;;;;;17.50;9.95;;;;;;;26.72;42.43;100692.63;5049799;28;20123;-83
2022/09/13 00:17:04;;;;;;;16.02;8.90;;;;;;;26.67;43.53;100689.28;5050435;28;20049;-81
2022/09/13 00:19:32;;;;;;;17.75;9.98;;;;;;;26.61;42.81;100684.22;5043289;28;20102;-82
2022/09/13 00:22:01;;;;;;;17.95;11.13;;;;;;;26.56;42.35;100680.03;5050287;28;20045;-80
2022/09/13 00:24:29;;;;;;;17.58;10.23;;;;;;;26.53;43.48;100676.53;5047095;28;20666;-80
2022/09/13 00:26:58;;;;;;;16.98;10.32;;;;;;;26.50;43.49;100676.66;5044474;28;20090;-79
2022/09/13 00:29:26;;;;;;;16.38;9.88;;;;;;;26.46;43.35;100675.03;5044949;28;20045;-81
2022/09/13 00:31:55;;;;;;;16.52;9.55;;;;;;;26.47;43.81;100671.44;5044604;28;20040;-77
2022/09/13 00:34:25;;;;;;;15.23;9.13;;;;;;;26.51;43.74;100670.41;5045864;28;20088;-76
2022/09/13 00:36:53;;;;;;;15.80;10.07;;;;;;;26.52;43.39;100669.47;5046447;28;20102;-78
2022/09/13 00:39:22;;;;;;;16.92;9.88;;;;;;;26.53;43.23;100667.72;5049387;28;20049;-82
2022/09/13 00:41:51;;;;;;;20.35;9.98;;;;;;;26.51;42.70;100673.06;5046597;28;20482;-81
2022/09/13 00:44:50;;;;;;;19.80;9.63;;;;;;;26.47;43.79;100666.13;5049393;28;20045;-83
2022/09/13 00:47:24;;;;;;;19.15;10.43;;;;;;;26.35;43.55;100661.31;5047431;28;20107;-80
2022/09/13 00:49:58;;;;;;;22.80;10.75;;;;;;;26.27;43.17;100661.59;5051521;28;20053;-82
2022/09/13 00:52:31;;;;;;;18.75;10.55;;;;;;;26.12;43.12;100652.41;5046064;28;20048;-81
2022/09/13 00:55:03;;;;;;;20.55;10.02;;;;;;;25.99;44.13;100658.22;5047206;28;20045;-82
2022/09/13 00:57:36;;;;;;;16.42;10.27;;;;;;;25.89;43.78;100655.91;5050611;28;20048;-80
2022/09/13 01:00:11;;;;;;;22.10;11.40;;;;;;;25.80;43.70;100657.97;5047843;28;20061;-79
2022/09/13 01:02:40;;;;;;;20.63;10.55;;;;;;;25.68;44.92;100638.09;5047231;28;20533;-83
2022/09/13 01:05:13;;;;;;;21.48;10.57;;;;;;;25.65;45.09;100644.31;5047208;28;20501;-83
2022/09/13 01:07:40;;;;;;;;;;;;;;;25.61;45.42;100636.53;5048331;28;20117;-82
2022/09/13 01:10:10;;;;;;;16.83;10.48;;;;;;;25.54;46.14;100638.56;5045182;28;19929;-82
2022/09/13 01:12:47;;;;;;;20.30;10.93;;;;;;;25.40;45.52;100643.44;5052054;28;20045;-81
2022/09/13 01:15:16;;;;;;;18.77;11.05;;;;;;;25.35;44.94;100637.44;5050883;28;20037;-77
2022/09/13 01:17:45;;;;;;;17.70;10.60;;;;;;;25.32;45.94;100646.34;5038770;28;20049;-81
2022/09/13 01:20:16;;;;;;;18.50;10.60;;;;;;;25.26;45.61;100636.81;5050048;28;20047;-83
2022/09/13 01:23:34;;;;;;;17.87;10.77;;;;;;;25.30;46.56;100637.59;5045957;28;20045;-85
2022/09/13 01:26:47;;;;;;;19.20;10.88;;;;;;;25.36;46.77;100637.41;5042026;28;20041;-85
2022/09/13 01:29:59;;;;;;;20.52;11.82;;;;;;;25.40;46.93;100638.16;5045660;28;20052;-81
2022/09/13 01:32:40;;;;;;;699.85;543.90;;;;;;;25.38;45.63;100639.97;5043909;28;20049;-84
2022/09/13 01:35:17;;;;;;;29.83;21.77;;;;;;;25.36;46.97;100632.09;5043207;28;20051;-81
2022/09/13 01:37:53;;;;;;;19.55;12.40;;;;;;;25.25;46.99;100639.53;5049136;28;20053;-83
2022/09/13 01:40:44;;;;;;;21.23;11.95;;;;;;;25.18;46.56;100638.88;5052360;28;20049;-71
2022/09/13 01:43:26;;;;;;;18.52;12.57;;;;;;;25.12;46.17;100639.03;5046247;28;20101;-80
2022/09/13 01:46:02;;;;;;;19.75;12.30;;;;;;;25.06;47.01;100639.25;5042703;28;20144;-84
2022/09/13 01:48:39;;;;;;;18.80;11.23;;;;;;;25.02;47.04;100637.63;5046489;28;20045;-78
2022/09/13 01:51:14;;;;;;;20.33;11.27;;;;;;;24.94;47.62;100636.97;5040440;28;20049;-81
2022/09/13 01:53:53;;;;;;;17.10;11.45;;;;;;;24.84;49.09;100631.97;5048697;28;20045;-80
2022/09/13 01:56:28;;;;;;;15.43;10.38;;;;;;;24.72;49.96;100626.22;5052322;28;20056;-81
2022/09/13 01:59:01;;;;;;;22.42;11.32;;;;;;;24.60;48.71;100630.97;5046623;28;20099;-81
2022/09/13 02:01:33;;;;;;;21.27;11.55;;;;;;;24.51;49.04;100627.72;5043238;28;20984;-80
2022/09/13 02:04:05;;;;;;;;;;;;;;;24.42;48.55;100631.50;5041966;28;20045;-81
2022/09/13 02:06:37;;;;;;;17.80;10.25;;;;;;;24.36;50.46;100631.69;5041529;28;19951;-80
2022/09/13 02:09:12;;;;;;;21.60;11.35;;;;;;;24.33;49.98;100637.06;5047882;28;20048;-81
2022/09/13 02:11:44;;;;;;;23.38;11.85;;;;;;;24.29;49.93;100627.50;5047118;28;20136;-80
2022/09/13 02:14:15;;;;;;;21.08;11.43;;;;;;;24.22;50.90;100626.78;5041460;28;20052;-78
2022/09/13 02:16:51;;;;;;;22.52;11.35;;;;;;;24.15;50.72;100628.75;5044577;28;20052;-81
2022/09/13 02:19:23;;;;;;;17.08;10.55;;;;;;;24.08;51.74;100626.34;5039325;28;20497;-83
2022/09/13 02:21:57;;;;;;;23.70;11.10;;;;;;;23.98;52.57;100631.88;5044695;28;20044;-82
2022/09/13 02:24:30;;;;;;;23.38;11.07;;;;;;;23.90;52.83;100623.28;5043235;28;20049;-78
2022/09/13 02:27:03;;;;;;;27.30;12.68;;;;;;;23.79;52.78;100631.50;5047813;28;20156;-79
2022/09/13 02:29:33;;;;;;;19.70;10.77;;;;;;;23.67;53.39;100631.81;5043006;28;20045;-79
2022/09/13 02:32:07;;;;;;;20.40;11.32;;;;;;;23.55;54.13;100632.16;5045342;28;20057;-81
2022/09/13 02:34:42;;;;;;;20.00;10.95;;;;;;;23.46;54.91;100630.59;5041979;28;20075;-81
2022/09/13 02:37:12;;;;;;;17.23;11.48;;;;;;;23.38;55.51;100635.19;5046592;28;20559;-80
2022/09/13 02:39:47;;;;;;;19.17;11.93;;;;;;;23.30;56.06;100626.63;5049111;28;20084;-80
2022/09/13 02:42:20;;;;;;;17.52;10.85;;;;;;;23.26;55.46;100635.53;5055389;28;20040;-80
2022/09/13 02:44:53;;;;;;;24.25;11.95;;;;;;;23.17;56.22;100637.47;5046199;28;20060;-80
2022/09/13 02:47:36;;;;;;;26.33;10.88;;;;;;;23.12;55.89;100642.00;5046062;28;20084;-80
2022/09/13 02:50:18;;;;;;;18.70;11.40;;;;;;;23.00;56.47;100629.13;5057395;28;20047;-81
2022/09/13 02:52:53;;;;;;;20.08;11.38;;;;;;;23.03;56.21;100644.84;5040433;28;20679;-81
2022/09/13 02:55:27;;;;;;;18.27;10.85;;;;;;;22.99;55.44;100643.19;5050453;28;20099;-80
2022/09/13 02:58:04;;;;;;;16.27;11.02;;;;;;;22.94;55.55;100639.78;5040537;28;20049;-79
2022/09/13 03:00:32;;;;;;;18.92;10.68;;;;;;;22.90;55.25;100648.66;5044833;28;20488;-78
2022/09/13 03:03:06;;;;;;;17.35;11.50;;;;;;;22.85;56.13;100658.44;5048493;28;20045;-83
2022/09/13 03:05:36;;;;;;;19.88;10.85;;;;;;;22.79;55.35;100652.41;5050799;28;20048;-78
2022/09/13 03:08:09;;;;;;;20.45;10.32;;;;;;;22.78;56.41;100661.22;5044193;28;20502;-84
2022/09/13 03:10:49;;;;;;;17.23;10.90;;;;;;;22.76;56.31;100662.16;5048172;28;20095;-82
2022/09/13 03:13:30;;;;;;;16.27;10.35;;;;;;;22.72;56.84;100657.84;5050696;28;20037;-81
2022/09/13 03:16:10;;;;;;;19.93;11.13;;;;;;;22.69;57.71;100666.69;5051069;28;20049;-82
2022/09/13 03:18:51;;;;;;;21.17;12.45;;;;;;;22.68;56.06;100674.66;5048310;28;20445;-81
2022/09/13 03:21:39;;;;;;;24.10;11.63;;;;;;;22.63;57.13;100677.41;5047293;28;20110;-83
2022/09/13 03:24:18;;;;;;;23.42;12.25;;;;;;;22.65;56.77;100685.25;5041379;28;20045;-81
2022/09/13 03:26:59;;;;;;;22.40;12.30;;;;;;;22.65;56.84;100679.97;5041180;28;20060;-82
2022/09/13 03:29:37;;;;;;;19.67;12.30;;;;;;;22.63;57.48;100677.41;5046719;28;20402;-81
2022/09/13 03:32:21;;;;;;;19.33;11.68;;;;;;;22.61;57.54;100683.59;5043436;28;20053;-81
2022/09/13 03:34:58;;;;;;;17.75;11.48;;;;;;;22.57;56.65;100686.28;5048556;28;20053;-82
2022/09/13 03:37:33;;;;;;;21.35;9.40;;;;;;;22.54;54.63;100696.91;5057492;28;20056;-83
2022/09/13 03:40:08;;;;;;;15.52;8.13;;;;;;;22.51;53.70;100693.47;5048954;28;20045;-83
2022/09/13 03:42:47;;;;;;;15.88;7.55;;;;;;;22.48;53.32;100696.19;5059088;28;20600;-82
2022/09/13 03:45:19;;;;;;;11.65;6.07;;;;;;;22.46;52.78;100695.34;5051316;28;20099;-81
2022/09/13 03:47:51;;;;;;;16.42;6.88;;;;;;;22.44;52.07;100694.50;5053337;28;20052;-80
2022/09/13 03:50:21;;;;;;;12.35;6.00;;;;;;;22.40;51.80;100704.22;5053995;28;20040;-80
2022/09/13 03:52:57;;;;;;;12.65;6.47;;;;;;;22.35;52.80;100699.03;5047849;28;21032;-80
2022/09/13 03:55:28;;;;;;;12.15;5.20;;;;;;;22.29;52.89;100696.56;5050387;28;20755;-81
2022/09/13 03:57:57;;;;;;;13.52;6.60;;;;;;;22.24;52.70;100700.16;5048448;28;20382;-82
2022/09/13 04:00:26;;;;;;;12.63;5.57;;;;;;;22.16;52.94;100698.50;5051025;28;20086;-81
2022/09/13 04:02:54;;;;;;;9.43;5.60;;;;;;;22.13;53.56;100698.59;5050431;28;20049;-82
2022/09/13 04:05:23;;;;;;;9.35;5.28;;;;;;;22.08;53.24;100708.34;5056353;28;20072;-79
2022/09/13 04:07:53;;;;;;;8.10;4.75;;;;;;;22.04;52.48;100705.78;5057419;28;20103;-81
2022/09/13 04:10:23;;;;;;;11.35;4.57;;;;;;;22.00;52.44;100701.47;5056451;27;20057;-75
2022/09/13 04:12:51;;;;;;;12.38;4.75;;;;;;;21.95;52.11;100710.31;5048537;28;20080;-80
2022/09/13 04:15:20;;;;;;;10.52;5.47;;;;;;;21.93;54.13;100709.47;5043673;28;20103;-83
2022/09/13 04:17:49;;;;;;;13.43;5.60;;;;;;;21.89;55.17;100709.56;5048813;28;20512;-78
2022/09/13 04:20:17;;;;;;;8.93;5.00;;;;;;;21.82;53.43;100719.34;5042388;28;20045;-81
2022/09/13 04:22:54;;;;;;;12.63;4.82;;;;;;;21.75;52.84;100715.06;5054079;28;20072;-78
2022/09/13 04:25:23;;;;;;;10.55;4.30;;;;;;;21.69;52.72;100717.81;5049244;28;20053;-78
2022/09/13 04:27:55;;;;;;;11.00;4.03;;;;;;;21.67;52.55;100719.59;5049376;28;20569;-81
2022/09/13 04:30:24;;;;;;;8.55;4.18;;;;;;;21.64;52.82;100717.88;5047656;28;20117;-81
2022/09/13 04:32:58;;;;;;;9.25;4.38;;;;;;;21.62;53.09;100713.53;5047437;28;20048;-83
2022/09/13 04:35:27;;;;;;;9.63;4.53;;;;;;;21.60;53.80;100713.59;5051067;28;20128;-83
2022/09/13 04:37:58;;;;;;;11.77;4.35;;;;;;;21.58;53.96;100707.47;5045988;28;20595;-79
2022/09/13 04:40:27;;;;;;;10.48;4.30;;;;;;;21.53;54.26;100710.19;5044515;28;20073;-81
2022/09/13 04:42:55;;;;;;;12.55;5.32;;;;;;;21.45;54.94;100709.44;5049256;28;20320;-80
2022/09/13 04:45:24;;;;;;;9.15;4.45;;;;;;;21.41;54.63;100705.09;5040874;28;20048;-82
2022/09/13 04:47:53;;;;;;;11.50;4.20;;;;;;;21.36;54.61;100706.91;5050000;28;20132;-81
2022/09/13 04:50:22;;;;;;;12.57;4.78;;;;;;;21.32;54.33;100703.44;5048923;28;20060;-83
2022/09/13 04:52:51;;;;;;;8.82;4.38;;;;;;;21.27;54.61;100701.78;5049172;28;20045;-81
2022/09/13 04:55:21;;;;;;;9.27;4.55;;;;;;;21.18;55.26;100704.56;5046144;28;20056;-83
2022/09/13 04:57:55;;;;;;;11.32;4.72;;;;;;;21.06;55.01;100701.22;5053647;28;20051;-82
2022/09/13 05:00:24;;;;;;;10.68;4.57;;;;;;;20.98;55.46;100707.47;5047649;28;20144;-84
2022/09/13 05:02:56;;;;;;;13.38;4.25;;;;;;;20.93;55.81;100710.16;5048831;28;20152;-80
2022/09/13 05:05:27;;;;;;;11.02;4.35;;;;;;;20.88;56.42;100712.00;5046644;28;20683;-79
2022/09/13 05:07:56;;;;;;;10.13;4.68;;;;;;;20.85;56.63;100706.78;5047307;28;20044;-80
2022/09/13 05:10:26;;;;;;;16.92;4.55;;;;;;;20.79;56.35;100707.72;5039308;28;20592;-83
2022/09/13 05:12:55;;;;;;;10.60;4.38;;;;;;;20.73;56.50;100699.06;5028185;28;20053;-82
2022/09/13 05:15:23;;;;;;;8.95;3.92;;;;;;;20.66;57.06;100707.03;5028967;28;20037;-81
2022/09/13 05:17:52;;;;;;;8.05;3.92;;;;;;;20.58;56.89;100703.63;5031195;28;20438;-82
2022/09/13 05:20:20;;;;;;;6.70;3.90;;;;;;;20.55;57.12;100698.38;5029849;28;20064;-82
2022/09/13 05:22:49;;;;;;;10.90;4.43;;;;;;;20.51;57.06;100702.78;5035227;28;20053;-83
2022/09/13 05:25:18;;;;;;;8.75;4.68;;;;;;;20.49;57.73;100704.56;5034533;28;20049;-84
2022/09/13 05:27:48;;;;;;;9.68;4.72;;;;;;;20.48;56.97;100701.97;5030712;28;20054;-82
2022/09/13 05:30:17;;;;;;;10.50;4.60;;;;;;;20.45;57.57;100707.25;5032375;28;20049;-83
2022/09/13 05:32:45;;;;;;;8.57;4.22;;;;;;;20.39;58.49;100700.34;5036330;28;20103;-84
2022/09/13 05:35:14;;;;;;;9.20;4.03;;;;;;;20.34;58.49;100702.16;5029332;28;20045;-84
2022/09/13 05:37:42;;;;;;;12.73;4.57;;;;;;;20.33;58.07;100694.28;5028857;28;20114;-84
2022/09/13 05:40:11;;;;;;;6.72;3.97;;;;;;;20.23;57.87;100697.00;5026269;28;20738;-84
2022/09/13 05:42:40;;;;;;;6.90;4.07;;;;;;;20.19;57.89;100694.44;5028175;28;20041;-83
2022/09/13 05:45:11;;;;;;;8.25;4.32;;;;;;;20.14;58.27;100697.09;5027355;28;20052;-83
2022/09/13 05:47:39;;;;;;;9.10;3.90;;;;;;;20.08;58.62;100694.53;5033725;28;20041;-84
2022/09/13 05:50:09;;;;;;;10.13;4.20;;;;;;;20.06;58.56;100705.03;5038321;28;20056;-80
2022/09/13 05:52:37;;;;;;;8.32;4.13;;;;;;;19.95;59.68;100699.06;5034322;28;20045;-82
2022/09/13 05:55:06;;;;;;;7.38;4.20;;;;;;;19.84;61.29;100698.28;5039922;28;20545;-81
2022/09/13 05:57:35;;;;;;;9.98;4.50;;;;;;;19.80;61.05;100701.84;5044904;28;20332;-83
2022/09/13 06:00:05;;;;;;;8.25;3.92;;;;;;;19.78;60.88;100699.22;5031949;28;20054;-83
2022/09/13 06:02:35;;;;;;;11.57;4.75;;;;;;;19.76;60.49;100698.34;5038524;28;20061;-82
2022/09/13 06:05:03;;;;;;;9.60;4.15;;;;;;;19.72;60.59;100694.00;5034241;28;20107;-81
2022/09/13 06:07:32;;;;;;;8.65;3.90;;;;;;;19.67;61.64;100695.78;5041897;28;20084;-81
2022/09/13 06:10:00;;;;;;;12.60;4.93;;;;;;;19.65;62.63;100692.28;5037340;27;20052;-81
2022/09/13 06:12:29;;;;;;;7.82;3.95;;;;;;;19.63;63.17;100696.69;5025639;28;20057;-81
2022/09/13 06:14:58;;;;;;;9.23;4.20;;;;;;;19.58;62.84;100698.47;5027047;28;20057;-82
2022/09/13 06:17:26;;;;;;;9.65;4.22;;;;;;;19.56;62.75;100700.25;5026454;28;20111;-84
2022/09/13 06:19:57;;;;;;;11.05;4.55;;;;;;;19.53;62.58;100698.53;5028160;28;20045;-83
2022/09/13 06:22:31;;;;;;;10.93;5.35;;;;;;;19.49;62.42;100704.66;5027910;28;20128;-82
2022/09/13 06:25:00;;;;;;;11.80;5.07;;;;;;;19.42;62.08;100698.63;5019979;28;20529;-82
2022/09/13 06:27:31;;;;;;;9.30;4.50;;;;;;;19.39;62.41;100698.63;5025532;28;20138;-81
2022/09/13 06:29:59;;;;;;;11.18;4.13;;;;;;;19.36;62.96;100700.44;5018594;28;20050;-82
2022/09/13 06:32:28;;;;;;;10.32;4.90;;;;;;;19.33;63.04;100689.94;5023819;28;20506;-81
2022/09/13 06:34:59;;;;;;;6.30;4.28;;;;;;;19.27;63.93;100693.50;5025779;28;20061;-82
2022/09/13 06:37:27;;;;;;;10.68;4.97;;;;;;;19.22;64.96;100690.91;5035272;28;20053;-81
2022/09/13 06:39:56;;;;;;;10.35;4.90;;;;;;;19.13;64.43;100703.22;5026057;28;20052;-82
2022/09/13 06:42:25;;;;;;;10.15;4.80;;;;;;;19.03;64.80;100713.75;5025478;28;20056;-81
2022/09/13 06:44:53;;;;;;;14.57;4.80;;;;;;;19.00;65.67;100712.91;5024784;28;20057;-83
2022/09/13 06:47:22;;;;;;;10.05;5.13;;;;;;;18.98;65.25;100705.03;5027448;28;20049;-82
2022/09/13 06:49:51;;;;;;;11.52;4.70;;;;;;;18.95;66.18;100710.31;5027460;28;20510;-83
2022/09/13 06:52:21;;;;;;;7.47;5.15;;;;;;;18.89;65.80;100709.47;5028054;28;20107;-83
2022/09/13 06:54:50;;;;;;;10.90;4.72;;;;;;;18.82;66.14;100709.47;5029483;28;20053;-82
2022/09/13 06:57:18;;;;;;;8.27;4.38;;;;;;;18.77;66.85;100720.88;5028230;28;20041;-81
2022/09/13 06:59:47;;;;;;;7.47;4.07;;;;;;;18.69;67.59;100712.13;5032544;28;20045;-82
2022/09/13 07:02:15;;;;;;;9.13;4.93;;;;;;;18.63;68.65;100724.41;5022540;28;20091;-81
2022/09/13 07:04:44;;;;;;;7.20;4.25;;;;;;;18.59;69.00;100716.56;5031714;28;20042;-82
2022/09/13 07:07:12;;;;;;;9.52;4.50;;;;;;;18.53;69.22;100709.59;5027216;28;20076;-81
2022/09/13 07:09:42;;;;;;;10.65;4.47;;;;;;;18.52;69.36;100720.94;5022782;28;20048;-80
2022/09/13 07:12:11;;;;;;;8.68;4.90;;;;;;;18.50;70.12;100717.47;5030614;28;20049;-81
2022/09/13 07:14:39;;;;;;;8.55;4.85;;;;;;;18.48;70.56;100718.34;5033853;28;20053;-82
2022/09/13 07:17:08;;;;;;;14.13;4.93;;;;;;;18.48;70.03;100721.81;5028838;28;20045;-80
2022/09/13 07:19:36;;;;;;;11.48;4.93;;;;;;;18.45;70.82;100724.47;5030064;28;20404;-82
2022/09/13 07:22:05;;;;;;;8.70;4.30;;;;;;;18.44;70.70;100720.13;5034005;28;20080;-82
2022/09/13 07:24:33;;;;;;;10.43;4.97;;;;;;;18.35;70.47;100707.06;5024465;28;20104;-82
2022/09/13 07:27:11;;;;;;;9.52;4.10;;;;;;;18.40;70.12;100714.00;5032676;28;20053;-82
2022/09/13 07:29:40;;;;;;;11.40;4.88;;;;;;;18.38;70.09;100707.03;5033895;28;20046;-82
2022/09/13 07:32:08;;;;;;;7.65;3.92;;;;;;;18.34;69.79;100700.06;5042584;28;20532;-83
2022/09/13 07:34:37;;;;;;;10.27;4.18;;;;;;;18.40;69.35;100707.91;5028871;28;20483;-83
2022/09/13 07:37:05;;;;;;;8.27;4.22;;;;;;;18.39;69.30;100709.66;5028825;28;20057;-83
2022/09/13 07:39:34;;;;;;;7.95;4.03;;;;;;;18.40;69.17;100707.91;5028205;28;20054;-82
2022/09/13 07:42:02;;;;;;;7.22;3.95;;;;;;;18.40;69.08;100710.53;5026322;28;20060;-83
2022/09/13 07:44:33;;;;;;;11.10;4.90;;;;;;;18.39;68.84;100704.41;5027557;28;20041;-82
2022/09/13 07:47:01;;;;;;;8.48;4.30;;;;;;;18.40;68.61;100705.28;5029030;28;20048;-83
2022/09/13 07:49:30;;;;;;;10.40;4.50;;;;;;;18.41;68.46;100696.53;5043684;28;20045;-83
2022/09/13 07:51:58;;;;;;;11.93;4.50;;;;;;;18.42;68.40;100693.91;5028546;28;20053;-82
2022/09/13 07:54:27;;;;;;;10.40;4.65;;;;;;;18.42;68.20;100691.28;5040289;28;20045;-83
2022/09/13 07:56:55;;;;;;;11.50;4.68;;;;;;;18.37;68.24;100690.44;5031159;28;20450;-80
2022/09/13 07:59:24;;;;;;;12.82;5.32;;;;;;;18.33;68.47;100682.59;5040254;28;20102;-81
2022/09/13 08:01:54;;;;;;;10.93;4.95;;;;;;;18.26;68.50;100681.75;5028901;28;21014;-81
2022/09/13 08:04:26;;;;;;;9.43;4.72;;;;;;;18.25;68.84;100684.38;5037668;28;20045;-82
2022/09/13 08:06:55;;;;;;;14.13;5.57;;;;;;;18.21;68.58;100679.16;5035614;28;20668;-82
2022/09/13 08:09:23;;;;;;;14.13;4.95;;;;;;;18.18;69.42;100684.38;5032306;28;20052;-81
2022/09/13 08:11:53;;;;;;;9.93;4.22;;;;;;;18.12;69.48;100684.41;5037560;28;20049;-81
2022/09/13 08:14:23;;;;;;;9.07;4.45;;;;;;;18.09;69.81;100684.41;5027403;28;20439;-82
2022/09/13 08:16:56;;;;;;;8.30;4.13;;;;;;;18.07;70.49;100686.16;5028106;28;20057;-80
2022/09/13 08:19:25;;;;;;;8.43;3.80;;;;;;;18.00;71.48;100682.69;5028507;28;20080;-80
2022/09/13 08:21:53;;;;;;;12.05;4.50;;;;;;;17.93;71.79;100677.47;5034998;28;20137;-79
2022/09/13 08:24:22;;;;;;;7.28;4.57;;;;;;;17.84;72.37;100677.47;5031899;28;20061;-80
2022/09/13 08:26:52;;;;;;;8.95;4.30;;;;;;;17.77;72.50;100682.72;5026483;28;20045;-80
2022/09/13 08:29:20;;;;;;;11.68;4.63;;;;;;;17.71;73.12;100681.84;5034059;28;20111;-81
2022/09/13 08:31:49;;;;;;;12.75;4.95;;;;;;;17.69;73.50;100686.19;5034432;28;20049;-81
2022/09/13 08:34:20;;;;;;;10.95;4.38;;;;;;;17.68;73.34;100689.69;5034267;28;20514;-81
2022/09/13 08:36:48;;;;;;;10.38;4.10;;;;;;;17.64;73.47;100696.69;5032978;28;20042;-82
2022/09/13 08:39:17;;;;;;;10.48;4.22;;;;;;;17.62;73.76;100692.31;5034384;28;20049;-80
2022/09/13 08:42:07;;;;;;;9.20;4.47;;;;;;;17.56;73.91;100701.03;5029087;28;20050;-82
2022/09/13 08:44:37;;;;;;;10.85;4.40;;;;;;;17.52;73.98;100691.41;5031165;28;20057;-82
2022/09/13 08:47:25;;;;;;;8.82;4.15;;;;;;;17.51;73.58;100694.94;5033987;28;20079;-82
2022/09/13 08:50:07;;;;;;;11.75;4.72;;;;;;;17.52;73.67;100696.66;5035307;28;20053;-82
2022/09/13 08:52:40;;;;;;;8.85;4.30;;;;;;;17.51;73.89;100701.03;5031732;28;20054;-82
2022/09/13 08:55:23;;;;;;;12.18;5.60;;;;;;;17.49;74.24;100696.66;5042861;28;20100;-82
2022/09/13 08:58:00;;;;;;;12.25;4.78;;;;;;;17.49;74.37;100692.31;5038448;28;20052;-82
2022/09/13 09:00:34;;;;;;;5.93;3.95;;;;;;;17.48;74.35;100690.56;5038567;28;20316;-80
2022/09/13 09:03:15;;;;;;;8.45;3.40;;;;;;;17.46;74.95;100691.44;5036105;28;20053;-81
2022/09/13 09:05:48;;;;;;;9.27;3.65;;;;;;;17.46;74.75;100694.06;5035493;28;20084;-81
2022/09/13 09:08:33;;;;;;;8.45;3.95;;;;;;;17.46;75.29;100686.22;5041098;28;20114;-82
2022/09/13 09:11:06;;;;;;;6.70;3.78;;;;;;;17.46;74.79;100691.44;5046432;27;20052;-81
2022/09/13 09:13:39;;;;;;;15.73;4.32;;;;;;;17.49;74.39;100688.81;5041141;28;20055;-81
2022/09/13 09:16:16;;;;;;;11.75;3.97;;;;;;;17.50;74.57;100686.22;5040215;28;20052;-80
2022/09/13 09:18:48;;;;;;;9.40;4.13;;;;;;;17.54;74.64;100689.69;5046311;28;20569;-82
2022/09/13 09:21:19;;;;;;;10.65;4.68;;;;;;;17.55;74.62;100689.69;5042065;28;20128;-82
2022/09/13 09:23:52;;;;;;;8.68;3.63;;;;;;;17.56;74.65;100685.31;5045352;28;20556;-82
2022/09/13 09:26:22;;;;;;;9.23;4.65;;;;;;;17.57;74.48;100674.00;5043504;28;20050;-81
2022/09/13 09:28:54;;;;;;;10.25;3.55;;;;;;;17.55;74.35;100680.97;5051837;28;20052;-81
2022/09/13 09:31:32;;;;;;;11.93;5.18;;;;;;;17.54;74.76;100682.69;5049851;28;20041;-82
2022/09/13 09:34:15;;;;;;;10.07;4.38;;;;;;;17.55;75.11;100683.59;5047932;28;20046;-82
2022/09/13 09:36:57;;;;;;;8.93;4.20;;;;;;;17.56;74.32;100682.72;5044249;28;20087;-81
2022/09/13 09:39:38;;;;;;;10.77;4.13;;;;;;;17.57;74.27;100681.84;5049070;28;20075;-80
2022/09/13 09:42:12;;;;;;;7.63;3.75;;;;;;;17.59;74.95;100672.22;5043642;28;20344;-81
2022/09/13 09:44:41;;;;;;;10.55;3.92;;;;;;;17.62;74.17;100671.38;5049260;28;20593;-82
2022/09/13 09:47:15;;;;;;;10.63;4.13;;;;;;;17.64;74.34;100675.75;5047652;28;20117;-83
2022/09/13 09:52:41;;;;;;;8.45;4.20;;;;;;;17.58;74.25;100675.72;5041709;28;20060;-82
2022/09/13 09:55:29;;;;;;;7.65;4.30;;;;;;;17.61;74.54;100683.56;5053010;28;20518;-81
2022/09/13 09:57:59;;;;;;;10.45;4.40;;;;;;;17.62;74.38;100682.72;5051836;28;21124;-79
2022/09/13 10:00:30;;;;;;;12.32;4.25;;;;;;;17.61;74.29;100682.69;5046946;28;20046;-82
2022/09/13 10:03:01;;;;;;;11.00;5.13;;;;;;;17.59;74.11;100685.31;5046430;28;20053;-82
2022/09/13 10:05:31;;;;;;;6.93;3.67;;;;;;;17.59;74.49;100688.81;5046064;28;20041;-82
2022/09/13 10:08:03;;;;;;;13.63;4.88;;;;;;;17.61;74.02;100686.19;5036485;28;20529;-81
2022/09/13 10:10:47;;;;;;;9.48;3.83;;;;;;;17.64;74.56;100686.22;5047294;27;20154;-80
2022/09/13 10:13:19;;;;;;;8.35;4.00;;;;;;;17.63;74.08;100676.59;5046794;28;20094;-82
2022/09/13 10:15:54;;;;;;;;;;;;;;;17.62;73.87;100687.94;5042710;28;20725;-83
2022/09/13 10:18:24;;;;;;;7.50;4.05;;;;;;;17.58;73.68;100687.06;5041696;28;20020;-83
2022/09/13 10:21:04;;;;;;;13.15;4.63;;;;;;;17.57;74.05;100689.69;5041842;28;20595;-82
2022/09/13 10:23:36;;;;;;;11.82;4.30;;;;;;;17.56;73.44;100694.03;5044873;28;20063;-81
2022/09/13 10:26:08;;;;;;;7.78;3.78;;;;;;;17.57;73.66;100692.31;5049527;28;20053;-81
2022/09/13 10:28:46;;;;;;;13.60;4.72;;;;;;;17.57;74.32;100689.69;5045001;28;20048;-82
2022/09/13 10:31:17;;;;;;;10.75;4.43;;;;;;;17.54;74.27;100684.44;5040702;28;20056;-80
2022/09/13 10:33:57;;;;;;;7.97;3.83;;;;;;;17.53;75.07;100685.34;5053723;28;20053;-80
2022/09/13 10:36:30;;;;;;;12.98;4.18;;;;;;;17.53;74.95;100693.19;5036019;28;20049;-80
2022/09/13 10:39:00;;;;;;;;;;;;;;;17.49;74.94;100680.97;5048172;28;20069;-79
2022/09/13 10:41:32;;;;;;;12.77;4.65;;;;;;;17.42;75.70;100679.22;5040493;28;20399;-79
2022/09/13 10:44:02;;;;;;;11.32;4.53;;;;;;;17.41;76.03;100680.09;5044632;28;20092;-80
2022/09/13 10:46:33;;;;;;;9.88;4.78;;;;;;;17.41;75.72;100677.47;5044699;28;20052;-82
2022/09/13 10:49:03;;;;;;;9.00;4.22;;;;;;;17.34;75.41;100667.03;5048010;28;20808;-81
2022/09/13 10:51:37;;;;;;;10.18;4.25;;;;;;;17.42;75.72;100680.09;5050060;28;20413;-81
2022/09/13 10:54:23;;;;;;;7.15;4.22;;;;;;;17.42;76.12;100681.84;5049211;28;20719;-80
2022/09/13 10:56:52;;;;;;;10.00;4.28;;;;;;;17.42;75.63;100674.00;5052349;28;20555;-80
2022/09/13 10:59:26;;;;;;;8.38;4.10;;;;;;;17.37;76.44;100672.25;5049633;28;20048;-80
2022/09/13 11:02:25;;;;;;;15.45;4.28;;;;;;;17.33;76.29;100670.50;5041359;28;20516;-80
2022/09/13 11:05:08;;;;;;;12.48;4.78;;;;;;;17.34;76.83;100672.25;5049421;28;20052;-81
2022/09/13 11:07:48;;;;;;;;;;;;;;;17.37;76.74;100674.88;5048870;28;20056;-80
2022/09/13 11:10:24;;;;;;;9.23;4.43;;;;;;;17.37;76.88;100661.78;5038890;28;19940;-79
2022/09/13 11:13:03;;;;;;;8.88;4.50;;;;;;;17.42;76.84;100661.78;5046051;28;20087;-80
2022/09/13 11:15:44;;;;;;;9.27;4.10;;;;;;;17.43;76.62;100663.53;5045475;28;20493;-80
2022/09/13 11:18:44;;;;;;;8.15;4.00;;;;;;;17.46;77.08;100660.06;5043581;28;21007;-80
2022/09/13 11:21:26;;;;;;;11.98;5.00;;;;;;;17.46;76.42;100660.91;5042847;28;20067;-80
2022/09/13 11:24:10;;;;;;;9.50;4.68;;;;;;;17.48;76.22;100655.69;5047594;28;20056;-80
2022/09/13 11:26:53;;;;;;;8.75;4.00;;;;;;;17.47;76.62;100660.03;5049785;28;20049;-80
2022/09/13 11:29:43;;;;;;;11.95;4.90;;;;;;;17.47;76.15;100659.16;5043946;28;20545;-81
2022/09/13 11:32:27;;;;;;;12.15;4.93;;;;;;;17.45;76.04;100653.06;5043705;28;20123;-81
2022/09/13 11:35:15;;;;;;;10.38;4.50;;;;;;;17.46;76.61;100652.22;5045553;28;20044;-81
2022/09/13 11:37:53;;;;;;;10.10;4.10;;;;;;;17.47;75.96;100651.31;5041092;28;20529;-81
2022/09/13 11:40:36;;;;;;;12.75;4.57;;;;;;;17.43;76.03;100642.63;5045759;28;20115;-80
2022/09/13 11:43:31;;;;;;;10.07;4.88;;;;;;;17.48;76.32;100647.84;5046371;28;20106;-81
2022/09/13 11:46:11;;;;;;;9.20;4.18;;;;;;;17.48;76.63;100643.47;5048658;28;20052;-81
2022/09/13 11:49:09;;;;;;;11.13;4.30;;;;;;;17.49;76.11;100644.34;5047083;28;20048;-80
2022/09/13 11:51:51;;;;;;;13.07;4.72;;;;;;;17.51;76.36;100640.00;5027893;28;20155;-80